Portada
METAR-TAF:

METAR-TAF

Aeroports :

Le Mans, França

latitud: 47-56N, longitud: 000-12E, altitud: 59 m

Observació

L'informe es va fer fa 44 minuts, a les 14:00 UTC
Vent 3 kt amb direcció variable
Temperatura 29°C
Humitat 31%
Pressió 1017 hPa
Visibilitat 10 km o més
sense núvols per sota de 1500 mi sense presència de cumulonimbus.

METAR: LFRM 161400Z AUTO VRB03KT CAVOK 29/10 Q1017 NOSIG

Hora: 16:44 (14:44 UTC)

Pronòstic

L'informe es va fer fa 3 hores i 44 minuts, a les 11:00 UTC
Pronòstic vàlid del 16 a les 12 UTC al 17 a les 12 UTC
Vent 5 kt del Nord-Est
Visibilitat 10 km o més
sense núvols per sota de 1500 mi sense presència de cumulonimbus.
Evolucionant progressivament
l' 16 a les 13 UTC al 16 a les 15 UTC
Vent 5 kt del Oest/Nord-Oest

TAF: LFRM 161100Z 1612/1712 05005KT CAVOK BECMG 1613/1615 29005KT

Observacions i pronòstics meteorològics de més de 4000 aeroports (METAR i TAF).

Les estacions disponibles són els punts grocs i vermells al mapa.

Posi el ratolí al punt desitjat per veure el nom de l'estació.

Feu clic per veure les observacions i els pronòstics meteorològics.

Per canviar el mapa: feu clic els botons verds amb una creu de color negre per apropar; al botó verd amb un guió per allunyar la imatge; o en les fletxes verdes per a mapes adjacents.


METAR-TAF: